Beron de Astrada, Argentina
Current Conditions -  °F | °C
As of 11:00 AM on Friday 24 Oct 2014 (Local Time) from SARC Reporting Station
Few Clouds Few Clouds  
Wind Chill: 90°   Ceiling: Unl
Heat Index: 90°   Visibility: 6mi
Dew Point: 61°   Wind: 3mph
Humidity: 38%   Direction: 160°SSE
Pressure: 29.91"   Gusts: NA
Location:  27.55°S, 57.53°W
Report Text: SARC 241400Z 16003KT 110V270 9999 FEW02032/16 Q1013
Loading
Personal Weather Stations






























Interactive Weather Map
Tropical Storm Tracking
New forecast layout! Learn more

10-Day Weather Forecast

Advertisements
Track Severe Weather on mobile